This is the latest recevied weather packets stored in our database for station/object KD7CIH. If no packets are shown the sender has not sent any weather packets the latest 1 day(s).
| Time | Temp. | Humidity | Pressure | Rain* | Wind** | Luminosity | Snow |
|---|---|---|---|---|---|---|---|
| 1836274589 | 20° C | 29% | 1015.4 hPa | 0 mm | 2.68 m/s, 269° | - | - |
| 1836274438 | 20° C | 29% | 1015.3 hPa | 0 mm | 2.68 m/s, 258° | - | - |
| 1836274287 | 20° C | 29% | 1015.4 hPa | 0 mm | 3.13 m/s, 229° | - | - |
| 1836274141 | 19.44° C | 29% | 1015.3 hPa | 0 mm | 2.68 m/s, 259° | - | - |
| 1836273988 | 20° C | 28% | 1015.4 hPa | 0 mm | 3.58 m/s, 263° | - | - |
| 1778059002 | -1.67° C | 78% | 1011.6 hPa | 0 mm | 0.89 m/s, 76° | - | - |
| 1778058702 | -1.67° C | 78% | 1011.4 hPa | 0 mm | 0.89 m/s, 80° | - | - |
| 1778058273 | -1.67° C | 78% | 1011.4 hPa | 0 mm | 0.89 m/s, 59° | - | - |
| 1778057973 | -1.67° C | 77% | 1011.3 hPa | 0 mm | 0.45 m/s, 31° | - | - |
| 1778057673 | -1.67° C | 78% | 1011.3 hPa | 0 mm | 0.45 m/s, 71° | - | - |
| 1778057376 | -1.67° C | 77% | 1011.3 hPa | 0 mm | 0.45 m/s, 73° | - | - |
| 1778057200 | -1.67° C | 78% | 1011.3 hPa | 0 mm | 0 m/s | - | - |
| 1778056774 | -1.67° C | 77% | 1011.2 hPa | 0 mm | 0.45 m/s, 147° | - | - |
| 1778056475 | -1.67° C | 77% | 1011.3 hPa | 0 mm | 0.89 m/s, 118° | - | - |
| 1778056173 | -1.67° C | 76% | 1011.4 hPa | 0 mm | 0.89 m/s, 142° | - | - |
| 1778055874 | -1.67° C | 76% | 1011.4 hPa | 0 mm | 0.45 m/s, 88° | - | - |
| 1778055573 | -1.67° C | 76% | 1011.4 hPa | 0 mm | 0.89 m/s, 102° | - | - |
| 1778055404 | -1.67° C | 76% | 1011.6 hPa | 0 mm | 0.89 m/s, 77° | - | - |
| 1778054974 | -1.67° C | 77% | 1011.6 hPa | 0 mm | 0.89 m/s, 65° | - | - |
| 1778054674 | -1.67° C | 77% | 1011.6 hPa | 0 mm | 1.34 m/s, 94° | - | - |
| 1778054373 | -1.67° C | 77% | 1011.4 hPa | 0 mm | 1.34 m/s, 76° | - | - |
| 1778054074 | -1.67° C | 76% | 1011.6 hPa | 0 mm | 1.79 m/s, 84° | - | - |
| 1778053774 | -1.67° C | 76% | 1011.4 hPa | 0 mm | 2.24 m/s, 80° | - | - |
| 1778053602 | -1.67° C | 76% | 1011.4 hPa | 0 mm | 1.79 m/s, 104° | - | - |
| 1778053176 | -1.67° C | 77% | 1011.4 hPa | 0 mm | 1.79 m/s, 87° | - | - |
* Rain latest hour (hover to see other rain measurements)
** Current wind speed in m/s (hover to see current wind gust speed)